LIPA

Details ICAO LIPA (AVB)
Name AVIANO AB
Region Italy
Timezone Europe/Rome (UTC+1.0)
Plans Departing 30
Arriving 44
Stats Elevation 410 ft / 125 m (AMSL)
Location 46.031111° 12.596389°
Runways 1
Magnetic Variation 3.255° E
Sunrise 2017-12-15 06:46:16 UTC / 2017-12-15 07:46:16 Local
Sunset 2017-12-15 15:26:02 UTC / 2017-12-15 16:26:02 Local
Advertisement - Login to hide

Runways

ID Width Length Bearing (true) Bearing (mag) Surface Threshold Offset Overrun Length
05 144 ft / 44 m 8,505 ft / 2,592 m 48.12° 44.86° Asphalt 0 ft / 0 m 845 ft / 258 m
23 144 ft / 44 m 8,505 ft / 2,592 m 228.14° 224.88° Asphalt 0 ft / 0 m 919 ft / 280 m

Approach Navaids

Runway Type Ident Frequency Range Bearing (true) Bearing (mag) Slope Elevation
05 Localiser IAVI 109.50 MHz 18 nm / 33 km 48.12° 44.87° - 410 ft / 125 m (AMSL)

Map

Weather


0- 5 10 15 20 25 30 35+ Temperature / ° C

Clouds and Precipitation
Forecast for 2017-12-15 12:00 UTC. Updated an hour ago

Ground ~20,000 ft ~40,000 ft Winds

METAR

LIPA 151155Z 35002KT 9999 FEW025 SCT060 11/07 Q0998 RMK BKN BKN200 VIS MIN 9999 WIND THR05 /////KT WIND THR23 /////KT A2948 BLU

TAF

Not found

Frequencies

Recorded 129.30 MHz ATIS
Approach 120.12 MHz APP
Clearance 122.10 MHz CLNC DEL
Warning: Do not use this data for real-world aviation or navigation. No guarantee of current accuracy is given.